York Road, Pennsylvania
Current Conditions -  °F | °C
As of 2:53 PM on Sunday 21 Dec 2014 (Local Time) from KTHV Reporting Station
Clear Clear  
Wind Chill: 31°   Ceiling: Unl
Heat Index: 36°   Visibility: 10mi
Dew Point: 21°   Wind: 6mph
Humidity: 55%   Direction: 310°NW
Pressure: 30.28"   Gusts: NA
Location:  39.7863°N, 76.988°W
Report Text: KTHV 211953Z AUTO 31005KT 10SM CLR 02/M06 A3028 RMK AO2 SLP262 T00221061
Loading
Personal Weather Stations






























Interactive Weather Map New forecast layout! Learn more

10-Day Weather Forecast

Advertisements
Track Severe Weather on mobile